sensor_id;sensor_type;location;lat;lon;timestamp;pressure;altitude;pressure_sealevel;temperature;humidity
57943;BME280;53626;51.224;-0.164;2022-07-29T00:02:13;101061.59;;;20.96;44.62
57943;BME280;53626;51.224;-0.164;2022-07-29T00:04:41;101057.47;;;20.83;44.49
57943;BME280;53626;51.224;-0.164;2022-07-29T00:07:08;101061.09;;;21.30;44.50
57943;BME280;53626;51.224;-0.164;2022-07-29T00:09:35;101062.49;;;20.86;44.47
57943;BME280;53626;51.224;-0.164;2022-07-29T00:12:03;101060.27;;;20.78;44.52
57943;BME280;53626;51.224;-0.164;2022-07-29T00:14:31;101058.19;;;20.68;44.65
57943;BME280;53626;51.224;-0.164;2022-07-29T00:16:58;101057.09;;;21.00;44.57
57943;BME280;53626;51.224;-0.164;2022-07-29T00:19:26;101054.80;;;21.07;44.43
57943;BME280;53626;51.224;-0.164;2022-07-29T00:21:53;101056.82;;;21.04;44.43
57943;BME280;53626;51.224;-0.164;2022-07-29T00:24:21;101055.84;;;20.86;44.60
57943;BME280;53626;51.224;-0.164;2022-07-29T00:26:48;101055.79;;;20.61;44.46
57943;BME280;53626;51.224;-0.164;2022-07-29T00:29:15;101054.93;;;20.49;44.63
57943;BME280;53626;51.224;-0.164;2022-07-29T00:31:42;101052.82;;;20.78;44.66
57943;BME280;53626;51.224;-0.164;2022-07-29T00:34:10;101052.21;;;20.36;44.47
57943;BME280;53626;51.224;-0.164;2022-07-29T00:36:37;101050.82;;;20.49;44.51
57943;BME280;53626;51.224;-0.164;2022-07-29T00:39:05;101052.74;;;20.88;44.36
57943;BME280;53626;51.224;-0.164;2022-07-29T00:41:32;101052.23;;;21.00;44.47
57943;BME280;53626;51.224;-0.164;2022-07-29T00:44:00;101053.06;;;20.71;44.48
57943;BME280;53626;51.224;-0.164;2022-07-29T00:46:27;101051.18;;;20.68;44.54
57943;BME280;53626;51.224;-0.164;2022-07-29T00:48:54;101048.86;;;20.88;44.56
57943;BME280;53626;51.224;-0.164;2022-07-29T00:51:22;101042.78;;;20.67;44.49
57943;BME280;53626;51.224;-0.164;2022-07-29T00:53:49;101041.43;;;20.69;44.48
57943;BME280;53626;51.224;-0.164;2022-07-29T00:56:17;101039.43;;;20.37;44.54
57943;BME280;53626;51.224;-0.164;2022-07-29T00:58:45;101039.58;;;20.63;44.62
57943;BME280;53626;51.224;-0.164;2022-07-29T01:01:13;101039.15;;;20.53;44.75
57943;BME280;53626;51.224;-0.164;2022-07-29T01:03:40;101038.90;;;20.61;44.71
57943;BME280;53626;51.224;-0.164;2022-07-29T01:06:08;101037.46;;;20.61;44.75
57943;BME280;53626;51.224;-0.164;2022-07-29T01:08:36;101034.16;;;20.69;44.69
57943;BME280;53626;51.224;-0.164;2022-07-29T01:11:04;101033.84;;;20.79;44.53
57943;BME280;53626;51.224;-0.164;2022-07-29T01:13:32;101029.89;;;20.29;44.86
57943;BME280;53626;51.224;-0.164;2022-07-29T01:16:07;101030.20;;;20.81;44.86
57943;BME280;53626;51.224;-0.164;2022-07-29T01:18:41;101029.68;;;20.51;45.07
57943;BME280;53626;51.224;-0.164;2022-07-29T01:21:30;101031.22;;;20.32;44.97
57943;BME280;53626;51.224;-0.164;2022-07-29T01:24:15;101034.90;;;20.48;45.18
57943;BME280;53626;51.224;-0.164;2022-07-29T01:26:49;101035.34;;;20.41;45.33
57943;BME280;53626;51.224;-0.164;2022-07-29T01:29:25;101028.71;;;20.28;45.50
57943;BME280;53626;51.224;-0.164;2022-07-29T01:31:57;101030.64;;;20.09;45.44
57943;BME280;53626;51.224;-0.164;2022-07-29T01:34:31;101028.05;;;20.34;45.51
57943;BME280;53626;51.224;-0.164;2022-07-29T01:37:08;101029.24;;;20.46;45.65
57943;BME280;53626;51.224;-0.164;2022-07-29T01:39:39;101031.10;;;20.36;45.58
57943;BME280;53626;51.224;-0.164;2022-07-29T01:42:14;101028.70;;;20.59;45.49
57943;BME280;53626;51.224;-0.164;2022-07-29T01:44:50;101026.31;;;20.37;45.85
57943;BME280;53626;51.224;-0.164;2022-07-29T01:47:25;101027.67;;;20.63;45.53
57943;BME280;53626;51.224;-0.164;2022-07-29T01:49:56;101024.45;;;20.27;45.74
57943;BME280;53626;51.224;-0.164;2022-07-29T01:52:30;101023.78;;;20.53;45.68
57943;BME280;53626;51.224;-0.164;2022-07-29T01:55:01;101023.64;;;20.50;45.81
57943;BME280;53626;51.224;-0.164;2022-07-29T01:57:32;101021.50;;;20.48;45.85
57943;BME280;53626;51.224;-0.164;2022-07-29T02:00:03;101024.23;;;20.38;46.05
57943;BME280;53626;51.224;-0.164;2022-07-29T02:02:33;101021.87;;;20.26;46.19
57943;BME280;53626;51.224;-0.164;2022-07-29T02:05:03;101023.54;;;20.39;46.04
57943;BME280;53626;51.224;-0.164;2022-07-29T02:07:33;101024.67;;;20.27;45.84
57943;BME280;53626;51.224;-0.164;2022-07-29T02:10:03;101023.02;;;20.54;45.77
57943;BME280;53626;51.224;-0.164;2022-07-29T02:12:32;101021.38;;;20.40;46.03
57943;BME280;53626;51.224;-0.164;2022-07-29T02:15:02;101018.94;;;20.29;46.08
57943;BME280;53626;51.224;-0.164;2022-07-29T02:17:35;101019.84;;;19.81;46.10
57943;BME280;53626;51.224;-0.164;2022-07-29T02:20:09;101022.58;;;20.18;45.94
57943;BME280;53626;51.224;-0.164;2022-07-29T02:22:39;101022.78;;;20.42;46.01
57943;BME280;53626;51.224;-0.164;2022-07-29T02:25:08;101020.54;;;20.43;45.91
57943;BME280;53626;51.224;-0.164;2022-07-29T02:27:37;101019.15;;;20.22;46.20
57943;BME280;53626;51.224;-0.164;2022-07-29T02:30:07;101019.46;;;19.92;46.38
57943;BME280;53626;51.224;-0.164;2022-07-29T02:32:36;101022.90;;;19.60;46.41
57943;BME280;53626;51.224;-0.164;2022-07-29T02:35:05;101022.56;;;20.13;46.44
57943;BME280;53626;51.224;-0.164;2022-07-29T02:37:34;101024.37;;;20.16;46.35
57943;BME280;53626;51.224;-0.164;2022-07-29T02:40:03;101022.50;;;19.82;46.55
57943;BME280;53626;51.224;-0.164;2022-07-29T02:42:33;101020.89;;;20.01;46.60
57943;BME280;53626;51.224;-0.164;2022-07-29T02:45:03;101021.25;;;19.97;46.68
57943;BME280;53626;51.224;-0.164;2022-07-29T02:47:34;101021.25;;;20.13;46.56
57943;BME280;53626;51.224;-0.164;2022-07-29T02:50:07;101021.69;;;19.69;46.87
57943;BME280;53626;51.224;-0.164;2022-07-29T02:52:41;101021.71;;;20.36;46.63
57943;BME280;53626;51.224;-0.164;2022-07-29T02:55:16;101025.83;;;20.08;46.66
57943;BME280;53626;51.224;-0.164;2022-07-29T02:57:47;101030.04;;;20.16;46.89
57943;BME280;53626;51.224;-0.164;2022-07-29T03:00:17;101029.30;;;20.02;46.82
57943;BME280;53626;51.224;-0.164;2022-07-29T03:02:45;101031.58;;;20.02;46.82
57943;BME280;53626;51.224;-0.164;2022-07-29T03:05:19;101028.71;;;19.99;46.86
57943;BME280;53626;51.224;-0.164;2022-07-29T03:07:54;101028.46;;;20.08;46.68
57943;BME280;53626;51.224;-0.164;2022-07-29T03:10:23;101029.59;;;20.10;46.63
57943;BME280;53626;51.224;-0.164;2022-07-29T03:12:52;101031.73;;;20.07;46.74
57943;BME280;53626;51.224;-0.164;2022-07-29T03:15:21;101035.63;;;19.93;46.94
57943;BME280;53626;51.224;-0.164;2022-07-29T03:17:49;101034.46;;;19.33;47.27
57943;BME280;53626;51.224;-0.164;2022-07-29T03:20:18;101033.87;;;19.80;46.87
57943;BME280;53626;51.224;-0.164;2022-07-29T03:22:45;101037.07;;;20.01;46.91
57943;BME280;53626;51.224;-0.164;2022-07-29T03:25:14;101036.48;;;20.17;47.03
57943;BME280;53626;51.224;-0.164;2022-07-29T03:27:42;101033.91;;;20.11;47.15
57943;BME280;53626;51.224;-0.164;2022-07-29T03:30:11;101034.23;;;19.99;47.03
57943;BME280;53626;51.224;-0.164;2022-07-29T03:32:40;101034.30;;;19.95;47.18
57943;BME280;53626;51.224;-0.164;2022-07-29T03:35:08;101031.37;;;19.89;47.28
57943;BME280;53626;51.224;-0.164;2022-07-29T03:37:35;101033.79;;;19.95;47.58
57943;BME280;53626;51.224;-0.164;2022-07-29T03:40:07;101032.65;;;19.80;47.47
57943;BME280;53626;51.224;-0.164;2022-07-29T03:42:37;101031.54;;;19.62;47.41
57943;BME280;53626;51.224;-0.164;2022-07-29T03:45:10;101031.55;;;19.86;47.42
57943;BME280;53626;51.224;-0.164;2022-07-29T03:47:42;101032.77;;;19.74;47.62
57943;BME280;53626;51.224;-0.164;2022-07-29T03:50:14;101035.17;;;19.98;47.51
57943;BME280;53626;51.224;-0.164;2022-07-29T03:52:42;101036.17;;;20.05;47.51
57943;BME280;53626;51.224;-0.164;2022-07-29T03:55:09;101031.12;;;19.76;47.66
57943;BME280;53626;51.224;-0.164;2022-07-29T03:57:38;101030.21;;;19.84;47.84
57943;BME280;53626;51.224;-0.164;2022-07-29T04:00:08;101033.59;;;19.86;47.55
57943;BME280;53626;51.224;-0.164;2022-07-29T04:02:36;101029.73;;;19.65;47.90
57943;BME280;53626;51.224;-0.164;2022-07-29T04:05:05;101031.63;;;19.79;47.76
57943;BME280;53626;51.224;-0.164;2022-07-29T04:07:37;101032.05;;;19.61;48.12
57943;BME280;53626;51.224;-0.164;2022-07-29T04:10:06;101034.99;;;19.91;47.68
57943;BME280;53626;51.224;-0.164;2022-07-29T04:12:33;101037.27;;;20.06;47.80
57943;BME280;53626;51.224;-0.164;2022-07-29T04:15:02;101040.83;;;19.73;48.08
57943;BME280;53626;51.224;-0.164;2022-07-29T04:17:29;101039.64;;;19.77;48.11
57943;BME280;53626;51.224;-0.164;2022-07-29T04:19:57;101039.52;;;19.99;47.78
57943;BME280;53626;51.224;-0.164;2022-07-29T04:22:24;101038.08;;;19.72;48.16
57943;BME280;53626;51.224;-0.164;2022-07-29T04:24:52;101038.51;;;20.01;48.22
57943;BME280;53626;51.224;-0.164;2022-07-29T04:27:19;101039.83;;;20.03;48.21
57943;BME280;53626;51.224;-0.164;2022-07-29T04:29:47;101044.35;;;19.78;48.18
57943;BME280;53626;51.224;-0.164;2022-07-29T04:32:14;101044.69;;;19.79;48.29
57943;BME280;53626;51.224;-0.164;2022-07-29T04:34:41;101045.50;;;19.75;48.42
57943;BME280;53626;51.224;-0.164;2022-07-29T04:37:09;101044.55;;;19.83;48.31
57943;BME280;53626;51.224;-0.164;2022-07-29T04:39:36;101043.20;;;19.55;48.39
57943;BME280;53626;51.224;-0.164;2022-07-29T04:42:04;101044.04;;;19.82;48.37
57943;BME280;53626;51.224;-0.164;2022-07-29T04:44:31;101044.43;;;19.69;48.59
57943;BME280;53626;51.224;-0.164;2022-07-29T04:46:58;101048.35;;;19.99;48.56
57943;BME280;53626;51.224;-0.164;2022-07-29T04:49:26;101048.46;;;19.88;48.44
57943;BME280;53626;51.224;-0.164;2022-07-29T04:51:53;101045.70;;;20.05;48.51
57943;BME280;53626;51.224;-0.164;2022-07-29T04:54:20;101048.31;;;19.81;48.59
57943;BME280;53626;51.224;-0.164;2022-07-29T04:56:48;101046.75;;;19.72;48.73
57943;BME280;53626;51.224;-0.164;2022-07-29T04:59:15;101046.19;;;19.83;48.54
57943;BME280;53626;51.224;-0.164;2022-07-29T05:01:43;101046.18;;;19.87;48.58
57943;BME280;53626;51.224;-0.164;2022-07-29T05:04:10;101044.27;;;20.01;48.30
57943;BME280;53626;51.224;-0.164;2022-07-29T05:06:37;101044.40;;;19.98;48.39
57943;BME280;53626;51.224;-0.164;2022-07-29T05:09:05;101046.30;;;19.80;48.33
57943;BME280;53626;51.224;-0.164;2022-07-29T05:11:32;101044.97;;;20.24;48.38
57943;BME280;53626;51.224;-0.164;2022-07-29T05:13:59;101043.68;;;20.29;48.32
57943;BME280;53626;51.224;-0.164;2022-07-29T05:16:26;101044.74;;;19.72;48.55
57943;BME280;53626;51.224;-0.164;2022-07-29T05:18:54;101047.71;;;19.97;48.54
57943;BME280;53626;51.224;-0.164;2022-07-29T05:21:21;101045.64;;;20.07;48.46
57943;BME280;53626;51.224;-0.164;2022-07-29T05:23:48;101048.83;;;20.02;48.63
57943;BME280;53626;51.224;-0.164;2022-07-29T05:26:16;101054.25;;;19.92;48.60
57943;BME280;53626;51.224;-0.164;2022-07-29T05:28:43;101051.68;;;19.88;48.66
57943;BME280;53626;51.224;-0.164;2022-07-29T05:31:11;101047.84;;;20.01;48.81
57943;BME280;53626;51.224;-0.164;2022-07-29T05:33:38;101049.43;;;20.08;48.84
57943;BME280;53626;51.224;-0.164;2022-07-29T05:36:06;101046.46;;;20.37;48.78
57943;BME280;53626;51.224;-0.164;2022-07-29T05:38:35;101045.29;;;20.14;48.84
57943;BME280;53626;51.224;-0.164;2022-07-29T05:41:03;101042.21;;;20.31;48.92
57943;BME280;53626;51.224;-0.164;2022-07-29T05:43:30;101046.88;;;20.16;48.89
57943;BME280;53626;51.224;-0.164;2022-07-29T05:45:58;101045.48;;;20.20;49.18
57943;BME280;53626;51.224;-0.164;2022-07-29T05:48:25;101050.26;;;20.03;49.15
57943;BME280;53626;51.224;-0.164;2022-07-29T05:50:53;101054.58;;;19.85;49.13
57943;BME280;53626;51.224;-0.164;2022-07-29T05:53:21;101055.72;;;20.03;49.26
57943;BME280;53626;51.224;-0.164;2022-07-29T05:55:49;101057.35;;;20.06;49.18
57943;BME280;53626;51.224;-0.164;2022-07-29T05:58:17;101060.96;;;20.10;49.23
57943;BME280;53626;51.224;-0.164;2022-07-29T06:00:45;101066.21;;;20.19;49.07
57943;BME280;53626;51.224;-0.164;2022-07-29T06:03:12;101066.28;;;20.02;49.33
57943;BME280;53626;51.224;-0.164;2022-07-29T06:05:39;101071.90;;;20.09;49.29
57943;BME280;53626;51.224;-0.164;2022-07-29T06:08:07;101070.34;;;20.11;49.24
57943;BME280;53626;51.224;-0.164;2022-07-29T06:10:35;101071.63;;;20.34;49.37
57943;BME280;53626;51.224;-0.164;2022-07-29T06:13:02;101071.94;;;20.64;49.42
57943;BME280;53626;51.224;-0.164;2022-07-29T06:15:29;101069.24;;;20.10;49.50
57943;BME280;53626;51.224;-0.164;2022-07-29T06:17:57;101072.99;;;20.16;49.53
57943;BME280;53626;51.224;-0.164;2022-07-29T06:20:24;101076.16;;;19.71;49.48
57943;BME280;53626;51.224;-0.164;2022-07-29T06:22:51;101079.11;;;20.21;49.59
57943;BME280;53626;51.224;-0.164;2022-07-29T06:25:19;101079.08;;;20.15;49.78
57943;BME280;53626;51.224;-0.164;2022-07-29T06:27:46;101081.64;;;20.09;49.91
57943;BME280;53626;51.224;-0.164;2022-07-29T06:30:13;101083.81;;;20.21;49.83
57943;BME280;53626;51.224;-0.164;2022-07-29T06:32:41;101085.33;;;20.13;49.94
57943;BME280;53626;51.224;-0.164;2022-07-29T06:35:09;101090.25;;;20.25;49.93
57943;BME280;53626;51.224;-0.164;2022-07-29T06:37:36;101093.44;;;20.26;49.88
57943;BME280;53626;51.224;-0.164;2022-07-29T06:40:04;101092.78;;;20.29;49.92
57943;BME280;53626;51.224;-0.164;2022-07-29T06:42:32;101096.58;;;20.26;50.04
57943;BME280;53626;51.224;-0.164;2022-07-29T06:45:00;101092.86;;;20.30;49.96
57943;BME280;53626;51.224;-0.164;2022-07-29T06:47:27;101093.12;;;20.25;50.10
57943;BME280;53626;51.224;-0.164;2022-07-29T06:49:54;101093.22;;;20.50;50.22
57943;BME280;53626;51.224;-0.164;2022-07-29T06:52:22;101092.68;;;20.34;50.12
57943;BME280;53626;51.224;-0.164;2022-07-29T06:54:49;101091.54;;;20.33;50.20
57943;BME280;53626;51.224;-0.164;2022-07-29T06:57:17;101096.73;;;20.42;50.14
57943;BME280;53626;51.224;-0.164;2022-07-29T06:59:44;101096.91;;;20.42;50.12
57943;BME280;53626;51.224;-0.164;2022-07-29T07:02:11;101096.95;;;20.44;50.22
57943;BME280;53626;51.224;-0.164;2022-07-29T07:04:39;101096.89;;;20.43;50.21
57943;BME280;53626;51.224;-0.164;2022-07-29T07:07:06;101099.90;;;20.41;50.30
57943;BME280;53626;51.224;-0.164;2022-07-29T07:09:34;101109.86;;;20.37;50.14
57943;BME280;53626;51.224;-0.164;2022-07-29T07:12:01;101109.01;;;20.52;50.35
57943;BME280;53626;51.224;-0.164;2022-07-29T07:14:29;101110.87;;;20.59;50.43
57943;BME280;53626;51.224;-0.164;2022-07-29T07:16:56;101110.23;;;20.58;50.40
57943;BME280;53626;51.224;-0.164;2022-07-29T07:19:23;101115.27;;;20.60;50.51
57943;BME280;53626;51.224;-0.164;2022-07-29T07:21:51;101114.50;;;20.58;50.65
57943;BME280;53626;51.224;-0.164;2022-07-29T07:24:19;101115.63;;;20.64;50.61
57943;BME280;53626;51.224;-0.164;2022-07-29T07:26:46;101114.76;;;20.61;50.81
57943;BME280;53626;51.224;-0.164;2022-07-29T07:29:14;101112.19;;;20.62;50.83
57943;BME280;53626;51.224;-0.164;2022-07-29T07:31:41;101107.77;;;20.56;50.84
57943;BME280;53626;51.224;-0.164;2022-07-29T07:34:09;101110.77;;;20.61;50.97
57943;BME280;53626;51.224;-0.164;2022-07-29T07:36:36;101108.79;;;20.65;50.99
57943;BME280;53626;51.224;-0.164;2022-07-29T07:39:03;101112.61;;;20.63;51.11
57943;BME280;53626;51.224;-0.164;2022-07-29T07:41:31;101113.16;;;20.64;51.13
57943;BME280;53626;51.224;-0.164;2022-07-29T07:43:58;101114.32;;;20.67;51.06
57943;BME280;53626;51.224;-0.164;2022-07-29T07:48:28;101112.50;;;21.29;49.97
57943;BME280;53626;51.224;-0.164;2022-07-29T07:50:55;101113.09;;;21.11;50.71
57943;BME280;53626;51.224;-0.164;2022-07-29T07:53:23;101111.67;;;21.17;49.95
57943;BME280;53626;51.224;-0.164;2022-07-29T07:55:50;101108.33;;;21.57;49.54
57943;BME280;53626;51.224;-0.164;2022-07-29T07:58:17;101106.77;;;21.77;49.02
57943;BME280;53626;51.224;-0.164;2022-07-29T08:00:44;101112.02;;;21.75;49.52
57943;BME280;53626;51.224;-0.164;2022-07-29T08:03:12;101113.96;;;21.82;49.16
57943;BME280;53626;51.224;-0.164;2022-07-29T08:05:40;101113.76;;;22.09;47.12
57943;BME280;53626;51.224;-0.164;2022-07-29T08:08:07;101112.88;;;22.18;46.83
57943;BME280;53626;51.224;-0.164;2022-07-29T08:10:34;101104.06;;;22.85;46.58
57943;BME280;53626;51.224;-0.164;2022-07-29T08:13:02;101101.87;;;22.53;46.03
57943;BME280;53626;51.224;-0.164;2022-07-29T08:15:30;101105.41;;;22.76;45.14
57943;BME280;53626;51.224;-0.164;2022-07-29T08:17:57;101111.11;;;22.73;44.64
57943;BME280;53626;51.224;-0.164;2022-07-29T08:20:25;101112.58;;;23.12;44.77
57943;BME280;53626;51.224;-0.164;2022-07-29T08:22:52;101115.41;;;23.16;43.93
57943;BME280;53626;51.224;-0.164;2022-07-29T08:25:20;101114.02;;;23.08;43.64
57943;BME280;53626;51.224;-0.164;2022-07-29T08:27:47;101116.33;;;23.35;43.44
57943;BME280;53626;51.224;-0.164;2022-07-29T08:30:14;101113.79;;;23.51;42.64
57943;BME280;53626;51.224;-0.164;2022-07-29T08:32:41;101120.52;;;23.10;42.76
57943;BME280;53626;51.224;-0.164;2022-07-29T08:35:09;101126.37;;;23.72;41.56
57943;BME280;53626;51.224;-0.164;2022-07-29T08:37:36;101123.55;;;23.43;41.51
57943;BME280;53626;51.224;-0.164;2022-07-29T08:40:04;101126.65;;;23.54;41.05
57943;BME280;53626;51.224;-0.164;2022-07-29T08:42:32;101122.67;;;23.58;42.81
57943;BME280;53626;51.224;-0.164;2022-07-29T08:44:59;101119.93;;;23.12;40.78
57943;BME280;53626;51.224;-0.164;2022-07-29T08:47:27;101117.96;;;23.23;40.93
57943;BME280;53626;51.224;-0.164;2022-07-29T08:49:54;101121.01;;;23.76;40.74
57943;BME280;53626;51.224;-0.164;2022-07-29T08:52:24;101124.94;;;23.59;40.55
57943;BME280;53626;51.224;-0.164;2022-07-29T08:54:53;101118.04;;;23.28;40.87
57943;BME280;53626;51.224;-0.164;2022-07-29T08:57:21;101119.08;;;23.59;40.74
57943;BME280;53626;51.224;-0.164;2022-07-29T08:59:50;101117.24;;;23.93;40.43
57943;BME280;53626;51.224;-0.164;2022-07-29T09:02:21;101116.40;;;23.89;40.02
57943;BME280;53626;51.224;-0.164;2022-07-29T09:04:49;101116.20;;;23.90;40.02
57943;BME280;53626;51.224;-0.164;2022-07-29T09:07:18;101116.00;;;23.68;40.64
57943;BME280;53626;51.224;-0.164;2022-07-29T09:09:45;101121.35;;;24.01;39.62
57943;BME280;53626;51.224;-0.164;2022-07-29T09:12:13;101117.46;;;24.18;39.28
57943;BME280;53626;51.224;-0.164;2022-07-29T09:14:41;101117.25;;;23.69;39.08
57943;BME280;53626;51.224;-0.164;2022-07-29T09:17:08;101114.40;;;23.75;39.99
57943;BME280;53626;51.224;-0.164;2022-07-29T09:19:37;101111.41;;;24.03;39.24
57943;BME280;53626;51.224;-0.164;2022-07-29T09:22:06;101110.33;;;24.15;39.26
57943;BME280;53626;51.224;-0.164;2022-07-29T09:24:39;101110.07;;;23.77;39.11
57943;BME280;53626;51.224;-0.164;2022-07-29T09:27:18;101106.56;;;23.92;38.75
57943;BME280;53626;51.224;-0.164;2022-07-29T09:29:45;101109.59;;;24.14;38.85
57943;BME280;53626;51.224;-0.164;2022-07-29T09:32:13;101104.18;;;24.28;38.60
57943;BME280;53626;51.224;-0.164;2022-07-29T09:34:40;101103.63;;;24.41;38.14
57943;BME280;53626;51.224;-0.164;2022-07-29T09:37:07;101105.43;;;24.44;39.42
57943;BME280;53626;51.224;-0.164;2022-07-29T09:39:37;101102.56;;;24.60;38.53
57943;BME280;53626;51.224;-0.164;2022-07-29T09:42:05;101103.07;;;24.26;37.87
57943;BME280;53626;51.224;-0.164;2022-07-29T09:44:42;101103.93;;;24.72;38.15
57943;BME280;53626;51.224;-0.164;2022-07-29T09:47:10;101109.33;;;24.63;36.93
57943;BME280;53626;51.224;-0.164;2022-07-29T09:49:51;101103.11;;;25.15;35.74
57943;BME280;53626;51.224;-0.164;2022-07-29T09:52:19;101103.68;;;24.70;36.88
57943;BME280;53626;51.224;-0.164;2022-07-29T09:54:47;101101.30;;;24.84;35.23
57943;BME280;53626;51.224;-0.164;2022-07-29T09:57:23;101106.79;;;25.12;35.21
57943;BME280;53626;51.224;-0.164;2022-07-29T09:59:57;101105.24;;;25.11;34.88
57943;BME280;53626;51.224;-0.164;2022-07-29T10:02:30;101103.90;;;24.36;36.42
57943;BME280;53626;51.224;-0.164;2022-07-29T10:05:00;101103.50;;;25.19;34.96
57943;BME280;53626;51.224;-0.164;2022-07-29T10:07:43;101101.70;;;25.03;34.67
57943;BME280;53626;51.224;-0.164;2022-07-29T10:10:18;101096.47;;;25.33;34.42
57943;BME280;53626;51.224;-0.164;2022-07-29T10:12:52;101101.34;;;25.22;33.50
57943;BME280;53626;51.224;-0.164;2022-07-29T10:15:21;101099.81;;;25.45;33.08
57943;BME280;53626;51.224;-0.164;2022-07-29T10:17:50;101104.60;;;25.61;33.04
57943;BME280;53626;51.224;-0.164;2022-07-29T10:20:18;101101.30;;;25.78;32.75
57943;BME280;53626;51.224;-0.164;2022-07-29T10:22:46;101093.32;;;25.50;33.15
57943;BME280;53626;51.224;-0.164;2022-07-29T10:25:15;101092.58;;;25.66;33.00
57943;BME280;53626;51.224;-0.164;2022-07-29T10:27:42;101088.66;;;25.16;33.85
57943;BME280;53626;51.224;-0.164;2022-07-29T10:30:11;101096.37;;;24.84;34.31
57943;BME280;53626;51.224;-0.164;2022-07-29T10:32:51;101098.75;;;24.78;34.35
57943;BME280;53626;51.224;-0.164;2022-07-29T10:35:33;101095.15;;;25.16;33.70
57943;BME280;53626;51.224;-0.164;2022-07-29T10:38:33;101096.39;;;24.99;33.88
57943;BME280;53626;51.224;-0.164;2022-07-29T10:41:12;101099.09;;;25.26;33.21
57943;BME280;53626;51.224;-0.164;2022-07-29T10:43:46;101097.53;;;25.48;33.90
57943;BME280;53626;51.224;-0.164;2022-07-29T10:46:15;101091.67;;;25.24;34.24
57943;BME280;53626;51.224;-0.164;2022-07-29T10:49:16;101104.28;;;25.53;34.44
57943;BME280;53626;51.224;-0.164;2022-07-29T10:51:52;101096.76;;;25.75;34.41
57943;BME280;53626;51.224;-0.164;2022-07-29T10:54:37;101103.48;;;25.60;33.66
57943;BME280;53626;51.224;-0.164;2022-07-29T10:57:12;101102.44;;;26.17;32.97
57943;BME280;53626;51.224;-0.164;2022-07-29T10:59:39;101104.56;;;25.94;33.25
57943;BME280;53626;51.224;-0.164;2022-07-29T11:02:41;101107.85;;;25.55;34.01
57943;BME280;53626;51.224;-0.164;2022-07-29T11:05:10;101106.85;;;26.14;34.44
57943;BME280;53626;51.224;-0.164;2022-07-29T11:07:39;101104.05;;;25.86;33.84
57943;BME280;53626;51.224;-0.164;2022-07-29T11:10:23;101101.01;;;25.70;33.20
57943;BME280;53626;51.224;-0.164;2022-07-29T11:12:51;101095.45;;;25.77;33.46
57943;BME280;53626;51.224;-0.164;2022-07-29T11:15:20;101103.91;;;25.65;32.41
57943;BME280;53626;51.224;-0.164;2022-07-29T11:18:20;101101.01;;;25.81;32.14
57943;BME280;53626;51.224;-0.164;2022-07-29T11:20:48;101099.94;;;26.19;31.56
57943;BME280;53626;51.224;-0.164;2022-07-29T11:23:25;101106.71;;;26.86;31.01
57943;BME280;53626;51.224;-0.164;2022-07-29T11:26:25;101101.52;;;27.25;30.60
57943;BME280;53626;51.224;-0.164;2022-07-29T11:28:57;101099.62;;;27.22;30.82
57943;BME280;53626;51.224;-0.164;2022-07-29T11:31:36;101099.49;;;27.01;31.00
57943;BME280;53626;51.224;-0.164;2022-07-29T11:34:17;101104.60;;;27.24;31.26
57943;BME280;53626;51.224;-0.164;2022-07-29T11:38:29;101109.74;;;27.32;30.73
57943;BME280;53626;51.224;-0.164;2022-07-29T11:41:21;101109.68;;;27.28;30.12
57943;BME280;53626;51.224;-0.164;2022-07-29T11:43:50;101108.11;;;27.26;30.00
57943;BME280;53626;51.224;-0.164;2022-07-29T11:46:43;101105.94;;;27.84;29.94
57943;BME280;53626;51.224;-0.164;2022-07-29T11:49:11;101106.30;;;27.31;29.98
57943;BME280;53626;51.224;-0.164;2022-07-29T11:51:38;101107.28;;;27.31;30.25
57943;BME280;53626;51.224;-0.164;2022-07-29T11:54:09;101105.47;;;27.66;30.68
57943;BME280;53626;51.224;-0.164;2022-07-29T11:56:42;101100.14;;;27.75;30.69
57943;BME280;53626;51.224;-0.164;2022-07-29T11:59:14;101096.84;;;27.45;30.69
57943;BME280;53626;51.224;-0.164;2022-07-29T12:01:52;101095.15;;;27.16;30.69
57943;BME280;53626;51.224;-0.164;2022-07-29T12:04:19;101092.70;;;27.64;30.79
57943;BME280;53626;51.224;-0.164;2022-07-29T12:06:49;101093.50;;;27.55;30.51
57943;BME280;53626;51.224;-0.164;2022-07-29T12:09:17;101089.95;;;27.18;30.25
57943;BME280;53626;51.224;-0.164;2022-07-29T12:11:45;101093.81;;;27.68;30.40
57943;BME280;53626;51.224;-0.164;2022-07-29T12:14:31;101100.41;;;27.42;30.78
57943;BME280;53626;51.224;-0.164;2022-07-29T12:16:59;101094.86;;;27.32;30.59
57943;BME280;53626;51.224;-0.164;2022-07-29T12:19:27;101095.79;;;27.12;30.51
57943;BME280;53626;51.224;-0.164;2022-07-29T12:21:55;101095.38;;;27.67;30.28
57943;BME280;53626;51.224;-0.164;2022-07-29T12:24:23;101100.46;;;27.72;30.23
57943;BME280;53626;51.224;-0.164;2022-07-29T12:26:53;101094.08;;;27.24;30.07
57943;BME280;53626;51.224;-0.164;2022-07-29T12:29:21;101091.87;;;27.14;30.25
57943;BME280;53626;51.224;-0.164;2022-07-29T12:31:53;101084.68;;;27.59;30.57
57943;BME280;53626;51.224;-0.164;2022-07-29T12:34:23;101083.96;;;27.41;30.97
57943;BME280;53626;51.224;-0.164;2022-07-29T12:36:50;101085.34;;;27.20;31.01
57943;BME280;53626;51.224;-0.164;2022-07-29T12:39:18;101086.24;;;27.15;31.87
57943;BME280;53626;51.224;-0.164;2022-07-29T12:41:45;101084.84;;;27.03;30.63
57943;BME280;53626;51.224;-0.164;2022-07-29T12:44:12;101079.75;;;27.48;30.68
57943;BME280;53626;51.224;-0.164;2022-07-29T12:46:40;101077.30;;;27.38;30.25
57943;BME280;53626;51.224;-0.164;2022-07-29T12:49:07;101082.30;;;27.32;32.16
57943;BME280;53626;51.224;-0.164;2022-07-29T12:54:22;101083.34;;;28.33;29.04
57943;BME280;53626;51.224;-0.164;2022-07-29T12:56:58;101081.27;;;27.91;29.22
57943;BME280;53626;51.224;-0.164;2022-07-29T12:59:26;101076.35;;;27.62;29.41
57943;BME280;53626;51.224;-0.164;2022-07-29T13:01:53;101081.25;;;27.18;29.60